createdAt,value
2022-12-14T00:02:44.337Z,100622.34
2022-12-14T00:05:31.964Z,100617.97
2022-12-14T00:08:19.354Z,100623.22
2022-12-14T00:11:06.400Z,100611.63
2022-12-14T00:13:53.833Z,100612.16
2022-12-14T00:16:41.758Z,100605.13
2022-12-14T00:19:28.363Z,100600.22
2022-12-14T00:22:15.174Z,100598.88
2022-12-14T00:25:02.559Z,100600.47
2022-12-14T00:27:49.893Z,100591.81
2022-12-14T00:30:36.800Z,100594.28
2022-12-14T00:33:25.114Z,100597.03
2022-12-14T00:36:13.404Z,100590.94
2022-12-14T00:39:00.486Z,100590.81
2022-12-14T00:41:47.000Z,100596.91
2022-12-14T00:44:33.947Z,100582.81
2022-12-14T00:47:20.815Z,100601.94
2022-12-14T00:50:10.107Z,100587.78
2022-12-14T00:52:56.693Z,100588.50
2022-12-14T00:55:49.430Z,100591.06
2022-12-14T00:58:36.966Z,100585.06
2022-12-14T01:01:23.818Z,100587.63
2022-12-14T01:04:19.617Z,100588.66
2022-12-14T01:07:08.020Z,100591.31
2022-12-14T01:09:55.150Z,100605.16
2022-12-14T01:12:41.744Z,100590.53
2022-12-14T01:15:28.410Z,100583.53
2022-12-14T01:18:16.047Z,100591.25
2022-12-14T01:21:14.461Z,100580.91
2022-12-14T01:24:04.694Z,100581.72
2022-12-14T01:26:51.331Z,100595.09
2022-12-14T01:29:38.164Z,100587.34
2022-12-14T01:32:25.200Z,100583.59
2022-12-14T01:35:12.019Z,100581.78
2022-12-14T01:37:58.981Z,100574.66
2022-12-14T01:40:47.483Z,100581.47
2022-12-14T01:43:52.642Z,100569.44
2022-12-14T01:46:42.847Z,100511.31
2022-12-14T01:49:36.066Z,100561.22
2022-12-14T01:52:26.484Z,100555.84
2022-12-14T01:55:18.058Z,100556.31
2022-12-14T01:58:08.487Z,100558.22
2022-12-14T02:00:58.242Z,100498.72
2022-12-14T02:03:48.600Z,100545.31
2022-12-14T02:06:37.163Z,100538.78
2022-12-14T02:09:30.494Z,100547.19
2022-12-14T02:12:20.303Z,100545.75
2022-12-14T02:15:09.225Z,100544.75
2022-12-14T02:17:55.921Z,100543.81
2022-12-14T02:20:50.918Z,100553.09
2022-12-14T02:24:13.340Z,100540.25
2022-12-14T02:27:12.102Z,100533.53
2022-12-14T02:30:07.877Z,100535.41
2022-12-14T02:33:19.223Z,100526.09
2022-12-14T02:36:14.697Z,100531.78
2022-12-14T02:39:13.519Z,100523.13
2022-12-14T02:42:09.546Z,100534.81
2022-12-14T02:45:05.207Z,100536.44
2022-12-14T02:47:56.419Z,100531.22
2022-12-14T02:50:50.606Z,100527.78
2022-12-14T02:53:42.532Z,100527.91
2022-12-14T02:56:37.483Z,100528.16
2022-12-14T02:59:25.831Z,100532.72
2022-12-14T03:02:14.691Z,100527.44
2022-12-14T03:05:03.142Z,100525.59
2022-12-14T03:07:53.715Z,100525.34
2022-12-14T03:10:47.977Z,100519.97
2022-12-14T03:13:38.779Z,100522.38
2022-12-14T03:16:28.775Z,100529.53
2022-12-14T03:19:21.754Z,100519.28
2022-12-14T03:22:15.903Z,100520.03
2022-12-14T03:25:08.816Z,100517.22
2022-12-14T03:28:02.189Z,100507.22
2022-12-14T03:31:01.313Z,100464.75
2022-12-14T03:33:51.222Z,100510.16
2022-12-14T03:36:44.194Z,100496.34
2022-12-14T03:39:36.288Z,100499.22
2022-12-14T03:42:26.787Z,100497.63
2022-12-14T03:45:21.440Z,100490.22
2022-12-14T03:48:16.739Z,100495.47
2022-12-14T03:51:13.245Z,100495.47
2022-12-14T03:54:08.980Z,100493.53
2022-12-14T03:57:03.950Z,100490.78
2022-12-14T04:00:00.976Z,100456.63
2022-12-14T04:02:53.567Z,100483.88
2022-12-14T04:05:48.968Z,100485.75
2022-12-14T04:08:43.250Z,100487.28
2022-12-14T04:11:53.809Z,100482.31
2022-12-14T04:15:05.986Z,100476.34
2022-12-14T04:18:14.924Z,100473.81
2022-12-14T04:21:10.240Z,100472.50
2022-12-14T04:24:25.830Z,100474.69
2022-12-14T04:27:18.128Z,100463.53
2022-12-14T04:30:08.277Z,100474.84
2022-12-14T04:33:00.523Z,100467.13
2022-12-14T04:35:48.161Z,100459.53
2022-12-14T04:38:39.425Z,100461.16
2022-12-14T04:41:30.472Z,100446.44
2022-12-14T04:44:23.383Z,100448.19
2022-12-14T04:47:15.138Z,100445.56
2022-12-14T04:50:09.366Z,100439.53
2022-12-14T04:53:01.312Z,100440.53
2022-12-14T04:55:53.396Z,100433.31
2022-12-14T04:58:41.906Z,100427.06
2022-12-14T05:01:42.593Z,100425.22
2022-12-14T05:04:43.543Z,100425.00
2022-12-14T05:07:37.768Z,100429.97
2022-12-14T05:10:31.872Z,100427.56
2022-12-14T05:13:25.088Z,100373.31
2022-12-14T05:16:12.952Z,100416.91
2022-12-14T05:18:59.769Z,100420.22
2022-12-14T05:21:50.650Z,100413.38
2022-12-14T05:24:37.539Z,100396.97
2022-12-14T05:27:29.915Z,100399.16
2022-12-14T05:30:17.459Z,100390.63
2022-12-14T05:33:04.730Z,100392.44
2022-12-14T05:35:51.772Z,100385.59
2022-12-14T05:38:41.433Z,100386.19
2022-12-14T05:41:29.673Z,100383.56
2022-12-14T05:44:17.604Z,100362.72
2022-12-14T05:47:06.541Z,100373.34
2022-12-14T05:49:54.373Z,100369.13
2022-12-14T05:52:41.960Z,100365.56
2022-12-14T05:55:31.232Z,100365.34
2022-12-14T05:58:18.814Z,100365.00
2022-12-14T06:01:09.773Z,100367.81
2022-12-14T06:03:59.844Z,100353.03
2022-12-14T06:06:46.965Z,100347.22
2022-12-14T06:09:34.616Z,100351.13
2022-12-14T06:12:23.492Z,100350.47
2022-12-14T06:15:17.411Z,100353.78
2022-12-14T06:18:05.385Z,100344.94
2022-12-14T06:20:52.091Z,100353.19
2022-12-14T06:23:38.661Z,100355.50
2022-12-14T06:26:26.835Z,100352.63
2022-12-14T06:29:18.967Z,100351.59
2022-12-14T06:32:06.704Z,100350.66
2022-12-14T06:34:58.028Z,100349.56
2022-12-14T06:37:44.974Z,100337.38
2022-12-14T06:40:35.760Z,100349.19
2022-12-14T06:43:26.860Z,100353.97
2022-12-14T06:46:18.537Z,100342.69
2022-12-14T06:49:08.437Z,100342.28
2022-12-14T06:51:57.054Z,100343.75
2022-12-14T06:54:44.845Z,100341.28
2022-12-14T06:57:32.290Z,100340.31
2022-12-14T07:00:20.394Z,100344.28
2022-12-14T07:03:11.299Z,100346.72
2022-12-14T07:05:59.464Z,100351.72
2022-12-14T07:08:46.811Z,100344.72
2022-12-14T07:11:34.306Z,100337.00
2022-12-14T07:14:21.761Z,100335.03
2022-12-14T07:17:08.515Z,100338.34
2022-12-14T07:19:56.667Z,100335.78
2022-12-14T07:22:43.594Z,100334.78
2022-12-14T07:25:35.936Z,100336.78
2022-12-14T07:28:22.706Z,100333.31
2022-12-14T07:31:13.881Z,100330.81
2022-12-14T07:34:01.219Z,100327.19
2022-12-14T07:36:56.298Z,100320.38
2022-12-14T07:39:43.058Z,100320.44
2022-12-14T07:42:29.784Z,100317.16
2022-12-14T07:45:19.776Z,100313.16
2022-12-14T07:48:08.313Z,100309.69
2022-12-14T07:50:55.050Z,100294.34
2022-12-14T07:53:43.829Z,100312.69
2022-12-14T07:56:33.003Z,100301.19
2022-12-14T07:59:19.567Z,100309.06
2022-12-14T08:02:06.415Z,100300.13
2022-12-14T08:04:53.362Z,100302.72
2022-12-14T08:07:40.131Z,100302.06
2022-12-14T08:10:28.121Z,100303.97
2022-12-14T08:13:14.931Z,100300.84
2022-12-14T08:16:05.702Z,100305.56
2022-12-14T08:18:54.267Z,100302.16
2022-12-14T08:21:41.366Z,100294.00
2022-12-14T08:24:29.345Z,100281.41
2022-12-14T08:27:17.733Z,100285.03
2022-12-14T08:30:05.519Z,100284.41
2022-12-14T08:32:53.323Z,100284.56
2022-12-14T08:35:40.180Z,100287.34
2022-12-14T08:38:27.092Z,100284.03
2022-12-14T08:41:15.907Z,100289.38
2022-12-14T08:44:17.016Z,100276.91
2022-12-14T08:47:04.402Z,100269.38
2022-12-14T08:49:51.130Z,100272.44
2022-12-14T08:52:38.640Z,100276.22
2022-12-14T08:55:29.078Z,100277.44
2022-12-14T08:58:17.798Z,100272.97
2022-12-14T09:01:07.905Z,100268.97
2022-12-14T09:03:54.757Z,100261.72
2022-12-14T09:06:41.406Z,100269.88
2022-12-14T09:09:28.246Z,100258.88
2022-12-14T09:12:15.052Z,100254.84
2022-12-14T09:15:01.816Z,100258.63
2022-12-14T09:17:50.073Z,100257.28
2022-12-14T09:20:36.935Z,100253.97
2022-12-14T09:23:24.630Z,100252.22
2022-12-14T09:26:13.173Z,100246.38
2022-12-14T09:29:00.155Z,100240.63
2022-12-14T09:31:46.734Z,100241.72
2022-12-14T09:34:35.248Z,100233.19
2022-12-14T09:37:22.341Z,100235.28
2022-12-14T09:40:12.097Z,100214.38
2022-12-14T09:43:02.536Z,100232.06
2022-12-14T09:45:55.625Z,100233.78
2022-12-14T09:48:43.684Z,100226.16
2022-12-14T09:51:35.199Z,100236.69
2022-12-14T09:54:26.729Z,100227.38
2022-12-14T09:57:16.603Z,100226.75
2022-12-14T10:00:03.548Z,100221.63
2022-12-14T10:03:20.966Z,100216.84
2022-12-14T10:06:26.759Z,100207.47
2022-12-14T10:09:22.438Z,100200.69
2022-12-14T10:12:21.051Z,100206.16
2022-12-14T10:15:21.589Z,100202.81
2022-12-14T10:21:43.966Z,100193.97
2022-12-14T10:24:37.716Z,100188.66
2022-12-14T10:27:27.200Z,100187.00
2022-12-14T10:30:17.979Z,100183.44
2022-12-14T10:33:23.028Z,100179.22
2022-12-14T10:36:19.215Z,100177.47
2022-12-14T10:39:19.586Z,100169.75
2022-12-14T10:42:17.143Z,100165.53
2022-12-14T10:48:39.971Z,100158.56
2022-12-14T10:51:31.876Z,100162.72
2022-12-14T10:54:27.794Z,100158.69
2022-12-14T10:57:19.909Z,100150.97
2022-12-14T11:00:22.513Z,100151.25
2022-12-14T11:03:16.180Z,100159.34
2022-12-14T11:06:08.318Z,100155.22
2022-12-14T11:08:55.840Z,100152.06
2022-12-14T11:11:43.208Z,100154.09
2022-12-14T11:14:31.457Z,100137.06
2022-12-14T11:17:31.814Z,100137.19
2022-12-14T11:20:22.180Z,100134.59
2022-12-14T11:23:18.212Z,100125.91
2022-12-14T11:26:08.825Z,100107.50
2022-12-14T11:28:58.183Z,100110.09
2022-12-14T11:31:48.108Z,100104.81
2022-12-14T11:34:38.614Z,100098.56
2022-12-14T11:37:27.745Z,100091.53
2022-12-14T11:40:21.781Z,100079.38
2022-12-14T11:43:23.171Z,100079.38
2022-12-14T11:46:10.009Z,100080.34
2022-12-14T11:48:58.145Z,100082.22
2022-12-14T11:51:56.189Z,100080.56
2022-12-14T11:54:45.982Z,100078.78
2022-12-14T11:57:42.520Z,100079.53
2022-12-14T12:00:43.883Z,100082.75
2022-12-14T12:03:37.647Z,100085.28
2022-12-14T12:06:27.541Z,100086.88
2022-12-14T12:09:28.594Z,100087.59
2022-12-14T12:12:21.610Z,100090.09
2022-12-14T12:15:18.510Z,100087.25
2022-12-14T12:18:09.748Z,100079.47
2022-12-14T12:21:00.707Z,100080.94
2022-12-14T12:23:54.102Z,100078.41
2022-12-14T12:26:49.966Z,100083.53
2022-12-14T12:29:43.393Z,100075.69
2022-12-14T12:32:35.299Z,100075.72
2022-12-14T12:35:28.593Z,100073.19
2022-12-14T12:38:23.457Z,100074.19
2022-12-14T12:41:21.819Z,100072.53
2022-12-14T12:44:31.348Z,100072.69
2022-12-14T12:47:31.187Z,100077.09
2022-12-14T12:50:31.084Z,100069.53
2022-12-14T12:53:21.549Z,100073.09
2022-12-14T12:56:12.990Z,100065.41
2022-12-14T12:59:02.493Z,100064.50
2022-12-14T13:01:53.968Z,100063.84
2022-12-14T13:04:49.202Z,100052.56
2022-12-14T13:07:43.244Z,100050.91
2022-12-14T13:10:33.726Z,100057.03
2022-12-14T13:13:25.039Z,100052.78
2022-12-14T13:16:22.965Z,100060.50
2022-12-14T13:19:49.597Z,100011.81
2022-12-14T13:22:31.468Z,99989.28
2022-12-14T13:25:23.315Z,100041.53
2022-12-14T13:28:41.954Z,100050.22
2022-12-14T13:31:38.931Z,100046.78
2022-12-14T13:34:39.444Z,100055.31
2022-12-14T13:37:49.237Z,100049.94
2022-12-14T13:41:05.045Z,100045.78
2022-12-14T13:44:19.519Z,100052.59
2022-12-14T13:47:15.631Z,100003.09
2022-12-14T13:50:34.642Z,100038.69
2022-12-14T13:53:17.595Z,100038.81
2022-12-14T13:56:05.848Z,100042.81
2022-12-14T13:58:58.944Z,100026.06
2022-12-14T14:02:32.191Z,100032.88
2022-12-14T14:05:49.444Z,100031.09
2022-12-14T14:08:42.118Z,100030.97
2022-12-14T14:11:58.530Z,100025.47
2022-12-14T14:14:52.862Z,100027.13
2022-12-14T14:17:44.339Z,100025.19
2022-12-14T14:20:37.943Z,100029.41
2022-12-14T14:23:32.430Z,100019.72
2022-12-14T14:26:30.377Z,100026.56
2022-12-14T14:29:26.988Z,100025.56
2022-12-14T14:32:33.416Z,100016.94
2022-12-14T14:35:28.696Z,100011.78
2022-12-14T14:38:26.553Z,100004.81
2022-12-14T14:41:21.704Z,99996.06
2022-12-14T14:44:20.596Z,99994.97
2022-12-14T14:47:16.543Z,99990.56
2022-12-14T14:50:07.896Z,99985.28
2022-12-14T14:53:15.113Z,99988.50
2022-12-14T14:56:33.543Z,99988.44
2022-12-14T14:59:40.448Z,99990.88
2022-12-14T15:02:33.366Z,99983.81
2022-12-14T15:05:42.712Z,99981.75
2022-12-14T15:08:38.439Z,99984.84
2022-12-14T15:11:27.069Z,99984.66
2022-12-14T15:14:26.494Z,99980.31
2022-12-14T15:17:14.840Z,99984.44
2022-12-14T15:20:03.437Z,99978.31
2022-12-14T15:22:51.396Z,99980.09
2022-12-14T15:25:39.246Z,99978.91
2022-12-14T15:28:29.080Z,99968.31
2022-12-14T15:31:16.457Z,99965.47
2022-12-14T15:34:04.378Z,99943.47
2022-12-14T15:36:51.805Z,99968.69
2022-12-14T15:39:40.788Z,99974.53
2022-12-14T15:42:32.137Z,99973.31
2022-12-14T15:45:21.731Z,99974.75
2022-12-14T15:48:15.364Z,99977.28
2022-12-14T15:51:04.437Z,99972.78
2022-12-14T15:53:54.695Z,99971.56
2022-12-14T15:56:45.184Z,99978.97
2022-12-14T15:59:36.148Z,99970.91
2022-12-14T16:02:26.475Z,99961.28
2022-12-14T16:05:17.313Z,99971.63
2022-12-14T16:08:04.212Z,99968.84
2022-12-14T16:10:52.978Z,99960.81
2022-12-14T16:13:43.527Z,99973.94
2022-12-14T16:16:32.108Z,99968.63
2022-12-14T16:19:27.738Z,99966.72
2022-12-14T16:22:22.955Z,99950.94
2022-12-14T16:25:19.760Z,99952.59
2022-12-14T16:28:28.947Z,99953.31
2022-12-14T16:31:20.663Z,99962.63
2022-12-14T16:34:14.356Z,99965.88
2022-12-14T16:37:33.418Z,99965.72
2022-12-14T16:40:25.825Z,99915.88
2022-12-14T16:43:28.151Z,99974.94
2022-12-14T16:46:19.334Z,99969.97
2022-12-14T16:49:22.400Z,99971.63
2022-12-14T16:52:17.487Z,99973.59
2022-12-14T16:55:12.140Z,99974.94
2022-12-14T16:57:59.383Z,99983.13
2022-12-14T17:00:59.406Z,99970.78
2022-12-14T17:03:54.359Z,99990.56
2022-12-14T17:06:47.727Z,99984.56
2022-12-14T17:09:35.508Z,99980.09
2022-12-14T17:12:25.434Z,99977.44
2022-12-14T17:15:14.283Z,99969.72
2022-12-14T17:18:03.887Z,99972.13
2022-12-14T17:20:50.726Z,99963.44
2022-12-14T17:23:41.238Z,99973.78
2022-12-14T17:26:29.930Z,99965.13
2022-12-14T17:29:20.931Z,99966.50
2022-12-14T17:32:11.971Z,99965.41
2022-12-14T17:34:59.403Z,99972.06
2022-12-14T17:37:46.048Z,99971.84
2022-12-14T17:40:34.438Z,99965.22
2022-12-14T17:43:23.474Z,99971.94
2022-12-14T17:46:10.412Z,99969.13
2022-12-14T17:49:01.515Z,99964.69
2022-12-14T17:51:51.573Z,99971.66
2022-12-14T17:54:38.461Z,99958.19
2022-12-14T17:57:27.450Z,99961.63
2022-12-14T18:00:35.276Z,99959.06
2022-12-14T18:03:26.737Z,99975.94
2022-12-14T18:06:19.195Z,99965.56
2022-12-14T18:09:07.981Z,99963.41
2022-12-14T18:12:22.168Z,99954.69
2022-12-14T18:15:03.642Z,99951.88
2022-12-14T18:17:52.697Z,99962.97
2022-12-14T18:20:42.373Z,99959.94
2022-12-14T18:23:32.015Z,99967.88
2022-12-14T18:26:21.624Z,99972.56
2022-12-14T18:29:08.390Z,99971.31
2022-12-14T18:31:56.861Z,99977.06
2022-12-14T18:34:43.243Z,99982.75
2022-12-14T18:37:32.922Z,99972.31
2022-12-14T18:40:24.018Z,99937.84
2022-12-14T18:43:16.896Z,99956.06
2022-12-14T18:46:03.639Z,99963.97
2022-12-14T18:48:51.892Z,99965.66
2022-12-14T18:51:39.620Z,99967.81
2022-12-14T18:54:26.188Z,99975.19
2022-12-14T18:57:13.132Z,99961.13
2022-12-14T19:00:00.017Z,99969.06
2022-12-14T19:02:49.778Z,99983.53
2022-12-14T19:05:39.024Z,99974.03
2022-12-14T19:08:25.592Z,99973.09
2022-12-14T19:11:14.535Z,99968.81
2022-12-14T19:14:02.169Z,99971.69
2022-12-14T19:16:48.784Z,99980.09
2022-12-14T19:19:43.996Z,99985.22
2022-12-14T19:22:32.446Z,99981.66
2022-12-14T19:25:21.601Z,99951.91
2022-12-14T19:31:17.555Z,99984.91
2022-12-14T19:34:06.600Z,99981.59
2022-12-14T19:36:55.501Z,99981.31
2022-12-14T19:39:46.898Z,99974.09
2022-12-14T19:42:37.210Z,99983.53
2022-12-14T19:45:27.136Z,99978.69
2022-12-14T19:48:16.581Z,99997.88
2022-12-14T19:51:05.658Z,99992.63
2022-12-14T19:53:52.971Z,99983.09
2022-12-14T19:56:41.151Z,99983.66
2022-12-14T19:59:29.815Z,99981.94
2022-12-14T20:02:18.058Z,99993.88
2022-12-14T20:05:06.522Z,99986.69
2022-12-14T20:07:53.144Z,99990.19
2022-12-14T20:10:40.152Z,99994.09
2022-12-14T20:13:29.617Z,100001.41
2022-12-14T20:16:18.209Z,99992.59
2022-12-14T20:19:05.557Z,99998.41
2022-12-14T20:21:54.270Z,100001.03
2022-12-14T20:24:42.143Z,99996.09
2022-12-14T20:27:28.903Z,100003.53
2022-12-14T20:30:17.083Z,100009.53
2022-12-14T20:33:03.814Z,100002.53
2022-12-14T20:35:52.211Z,100005.41
2022-12-14T20:38:39.462Z,100011.03
2022-12-14T20:41:26.744Z,100016.03
2022-12-14T20:44:16.036Z,100016.81
2022-12-14T20:47:07.648Z,100003.41
2022-12-14T20:49:57.088Z,100021.63
2022-12-14T20:52:44.147Z,100020.41
2022-12-14T20:55:31.113Z,100011.91
2022-12-14T20:58:18.396Z,100004.97
2022-12-14T21:01:08.829Z,100041.31
2022-12-14T21:04:02.071Z,100015.81
2022-12-14T21:06:49.897Z,100011.34
2022-12-14T21:09:37.311Z,100018.03
2022-12-14T21:12:25.042Z,100010.59
2022-12-14T21:15:12.990Z,100012.28
2022-12-14T21:18:00.075Z,100011.28
2022-12-14T21:20:49.309Z,100006.66
2022-12-14T21:23:37.144Z,100008.91
2022-12-14T21:26:26.822Z,100011.34
2022-12-14T21:29:17.434Z,100004.34
2022-12-14T21:32:05.650Z,100004.03
2022-12-14T21:34:53.405Z,99985.63
2022-12-14T21:37:42.368Z,100007.59
2022-12-14T21:40:47.166Z,100005.59
2022-12-14T21:43:34.327Z,100006.28
2022-12-14T21:46:23.637Z,100011.25
2022-12-14T21:49:13.157Z,100015.00
2022-12-14T21:52:00.112Z,100013.31
2022-12-14T21:54:48.452Z,100021.44
2022-12-14T21:57:53.496Z,100022.19
2022-12-14T22:00:40.381Z,100019.50
2022-12-14T22:03:27.528Z,100021.09
2022-12-14T22:06:14.650Z,100032.00
2022-12-14T22:09:01.698Z,100029.41
2022-12-14T22:11:50.108Z,100031.69
2022-12-14T22:14:37.622Z,100034.84
2022-12-14T22:17:24.293Z,100031.34
2022-12-14T22:20:12.158Z,100024.44
2022-12-14T22:23:00.107Z,100029.59
2022-12-14T22:25:50.504Z,100013.91
2022-12-14T22:28:38.440Z,100027.84
2022-12-14T22:31:25.983Z,100041.44
2022-12-14T22:34:17.315Z,100036.34
2022-12-14T22:37:04.118Z,100042.25
2022-12-14T22:39:50.962Z,100029.38
2022-12-14T22:42:37.701Z,100024.13
2022-12-14T22:45:25.955Z,100021.25
2022-12-14T22:48:12.526Z,100015.38
2022-12-14T22:51:00.988Z,100013.25
2022-12-14T22:53:49.539Z,99983.31
2022-12-14T22:56:43.205Z,99982.78
2022-12-14T22:59:38.013Z,100018.69
2022-12-14T23:02:26.402Z,100026.00
2022-12-14T23:05:13.365Z,100030.06
2022-12-14T23:07:59.964Z,100029.78
2022-12-14T23:11:04.377Z,100034.41
2022-12-14T23:14:08.636Z,100036.03
2022-12-14T23:17:12.937Z,100038.00
2022-12-14T23:20:18.321Z,100043.97
2022-12-14T23:23:24.321Z,100043.09
2022-12-14T23:26:28.561Z,100035.81
2022-12-14T23:29:33.139Z,100043.78
2022-12-14T23:32:37.461Z,100043.78
2022-12-14T23:35:43.421Z,100038.94
2022-12-14T23:38:47.483Z,100048.75
2022-12-14T23:41:51.749Z,100050.34
2022-12-14T23:44:55.979Z,100048.59
2022-12-14T23:48:00.269Z,100045.91
2022-12-14T23:51:06.084Z,100049.28
2022-12-14T23:54:10.154Z,100055.19
2022-12-14T23:57:14.808Z,100052.44
